Time;durP1;ratioP1;P1;durP2;ratioP2;P2;SDS_P1;SDS_P2;PMS_P1;PMS_P2;Temp;Humidity;BMP_temperature;BMP_pressure;BME280_temperature;BME280_humidity;BME280_pressure;Samples;Min_cycle;Max_cycle;Signal;HPM_P1;HPM_P2
2023/01/03 00:01:41;;;;;;;8.50;1.85;;;7.00;99.90;;;7.03;100.00;101029.03;4968017;28;20228;-77
2023/01/03 00:04:09;;;;;;;9.65;2.17;;;7.00;99.90;;;6.96;100.00;101036.69;4972739;28;20236;-77
2023/01/03 00:06:42;;;;;;;10.30;2.17;;;6.90;99.90;;;6.95;100.00;101045.41;4967465;28;20716;-77
2023/01/03 00:09:11;;;;;;;10.18;2.25;;;6.90;99.90;;;6.92;100.00;101051.47;4965437;28;20229;-78
2023/01/03 00:14:30;;;;;;;13.68;3.05;;;6.80;99.90;;;6.67;100.00;101052.38;4960546;28;20295;-77
2023/01/03 00:16:59;;;;;;;12.32;2.78;;;6.70;99.90;;;6.55;100.00;101046.69;4966752;28;20233;-77
2023/01/03 00:19:32;;;;;;;20.98;4.50;;;6.50;99.90;;;6.66;100.00;101068.97;4963370;28;20611;-77
2023/01/03 00:22:00;;;;;;;14.90;3.40;;;6.60;99.90;;;6.71;100.00;101080.53;4968169;28;20237;-77
2023/01/03 00:24:27;;;;;;;7.95;1.90;;;6.70;99.90;;;6.70;100.00;101085.75;4971263;28;20283;-77
2023/01/03 00:26:54;;;;;;;12.30;2.88;;;6.70;99.90;;;6.71;100.00;101091.06;4965004;28;20344;-77
2023/01/03 00:29:21;;;;;;;12.73;2.85;;;6.70;99.90;;;6.64;100.00;101099.56;4964293;28;20230;-78
2023/01/03 00:31:48;;;;;;;6.05;1.33;;;6.60;99.90;;;6.57;100.00;101104.56;4962990;28;20237;-77
2023/01/03 00:34:16;;;;;;;9.23;2.20;;;6.50;99.90;;;6.57;100.00;101117.69;4961783;28;20252;-78
2023/01/03 00:36:43;;;;;;;8.93;1.98;;;6.50;99.90;;;6.56;100.00;101121.16;4965589;28;20253;-78
2023/01/03 00:39:10;;;;;;;10.75;2.30;;;6.50;99.90;;;6.56;100.00;101124.69;4963061;28;20268;-77
2023/01/03 00:41:38;;;;;;;10.18;2.15;;;6.50;99.90;;;6.57;100.00;101133.44;4965291;28;20240;-77
2023/01/03 00:44:06;;;;;;;6.95;1.55;;;6.50;99.90;;;6.51;100.00;101139.38;4964027;28;20229;-77
2023/01/03 00:46:33;;;;;;;4.38;1.13;;;6.50;99.90;;;6.46;100.00;101145.28;4965690;28;20749;-77
2023/01/03 00:49:02;;;;;;;10.82;2.45;;;6.40;99.90;;;6.45;100.00;101151.38;4975045;28;20237;-77
2023/01/03 00:51:33;;;;;;;11.30;2.60;;;6.40;99.90;;;6.37;100.00;101158.97;4970023;28;20241;-77
2023/01/03 00:54:02;;;;;;;13.68;3.03;;;6.40;99.90;;;6.36;100.00;101155.44;4963091;28;20701;-78
2023/01/03 00:56:34;;;;;;;9.27;1.98;;;6.30;99.90;;;6.31;100.00;101169.25;4963199;28;20233;-77
2023/01/03 00:59:02;;;;;;;4.95;1.13;;;6.30;99.90;;;6.30;100.00;101184.09;4976901;28;20713;-77
2023/01/03 01:01:35;;;;;;;14.77;3.30;;;6.30;99.90;;;6.38;100.00;101189.66;4963062;28;20710;-77
2023/01/03 01:04:28;;;;;;;5.38;1.25;;;6.30;99.90;;;6.34;100.00;101196.53;4958825;28;20240;-78
2023/01/03 01:07:01;;;;;;;11.00;2.58;;;6.30;99.90;;;6.32;100.00;101198.19;4966160;28;20240;-77
2023/01/03 01:09:35;;;;;;;19.90;4.20;;;6.30;99.90;;;6.23;100.00;101192.59;4968214;28;20248;-77
2023/01/03 01:12:05;;;;;;;11.15;2.47;;;6.20;99.90;;;6.25;100.00;101197.91;4960925;28;20232;-77
2023/01/03 01:14:33;;;;;;;8.23;1.88;;;6.30;99.90;;;6.23;100.00;101204.84;4956932;28;20235;-78
2023/01/03 01:17:05;;;;;;;6.00;1.60;;;6.20;99.90;;;6.26;100.00;101207.56;4963609;28;20244;-77
2023/01/03 01:19:42;;;;;;;20.40;4.00;;;6.20;99.90;;;6.25;100.00;101218.91;4962579;28;20234;-78
2023/01/03 01:22:10;;;;;;;11.98;2.55;;;6.30;99.90;;;6.22;100.00;101224.06;4963039;28;20235;-77
2023/01/03 01:24:38;;;;;;;3.28;0.80;;;6.20;99.90;;;6.21;100.00;101238.91;4972338;28;20291;-77
2023/01/03 01:27:05;;;;;;;4.15;1.05;;;6.20;99.90;;;6.14;100.00;101235.97;4971163;28;20241;-77
2023/01/03 01:29:32;;;;;;;17.17;3.45;;;6.20;99.90;;;6.13;100.00;101244.69;4972330;28;20697;-77
2023/01/03 01:32:00;;;;;;;14.90;3.25;;;6.20;99.90;;;6.16;100.00;101239.56;4967721;28;20221;-77
2023/01/03 01:34:28;;;;;;;14.85;3.28;;;6.20;99.90;;;6.26;100.00;101261.00;4962353;28;20233;-76
2023/01/03 01:36:56;;;;;;;6.72;1.63;;;6.20;99.90;;;6.28;100.00;101274.19;4965539;28;20671;-77
2023/01/03 01:39:27;;;;;;;17.48;3.47;;;6.30;99.90;;;6.24;100.00;101281.06;4962416;28;20229;-76
2023/01/03 01:44:58;;;;;;;9.60;2.22;;;6.30;99.90;;;6.23;100.00;101287.16;4962873;28;20283;-77
2023/01/03 01:47:33;;;;;;;6.55;1.67;;;6.30;99.90;;;6.22;100.00;101289.72;4968129;28;20228;-77
2023/01/03 01:50:22;;;;;;;12.95;2.88;;;6.20;99.90;;;6.14;100.00;101296.38;4964283;28;20233;-76
2023/01/03 01:52:54;;;;;;;6.30;1.55;;;6.20;99.90;;;6.11;100.00;101299.78;4970375;28;20229;-76
2023/01/03 01:55:45;;;;;;;12.38;2.80;;;6.10;99.90;;;6.08;100.00;101297.94;4967160;28;20233;-77
2023/01/03 01:58:13;;;;;;;6.53;1.42;;;6.10;99.90;;;6.07;100.00;101311.91;4971880;28;20291;-77
2023/01/03 02:00:42;;;;;;;3.38;0.88;;;6.10;99.90;;;6.06;100.00;101310.09;4973442;28;20271;-77
2023/01/03 02:03:11;;;;;;;8.15;1.80;;;6.10;99.90;;;5.94;100.00;101309.59;4954025;28;20229;-77
2023/01/03 02:05:48;;;;;;;5.30;1.17;;;6.00;99.90;;;5.87;100.00;101304.91;4973124;28;20239;-77
2023/01/03 02:08:15;;;;;;;7.18;1.60;;;5.90;99.90;;;5.91;100.00;101308.56;4975072;28;20238;-78
2023/01/03 02:11:13;;;;;;;5.45;1.20;;;5.90;99.90;;;5.95;100.00;101316.63;4974451;28;20256;-79
2023/01/03 02:13:57;;;;;;;5.53;1.30;;;6.00;99.90;;;5.97;100.00;101325.47;4957060;28;20234;-77
2023/01/03 02:16:47;;;;;;;17.92;3.80;;;6.00;99.90;;;5.96;100.00;101328.94;4967207;28;20283;-77
2023/01/03 02:20:10;;;;;;;13.10;2.88;;;6.00;99.90;;;5.94;100.00;101319.22;4975779;28;20232;-78
2023/01/03 02:23:05;;;;;;;8.18;1.80;;;6.00;99.90;;;5.96;100.00;101330.66;4969154;28;20319;-78
2023/01/03 02:26:24;;;;;;;14.63;3.08;;;5.90;99.90;;;5.85;100.00;101332.81;4965675;28;20252;-78
2023/01/03 02:29:29;;;;;;;8.55;2.13;;;5.90;99.90;;;5.77;100.00;101323.72;4965009;28;20221;-78
2023/01/03 02:32:14;;;;;;;11.20;2.63;;;5.80;99.90;;;5.68;100.00;101316.34;4967983;28;20225;-77
2023/01/03 02:35:04;;;;;;;7.75;1.77;;;5.70;99.90;;;5.52;100.00;101298.16;4982030;28;20236;-77
2023/01/03 02:37:46;;;;;;;10.90;2.60;;;5.60;99.90;;;5.42;100.00;101288.09;4985547;28;20236;-78
2023/01/03 02:40:38;;;;;;;9.93;2.10;;;5.50;99.90;;;5.40;100.00;101301.16;4964253;28;20319;-78
2023/01/03 02:43:12;;;;;;;5.82;1.40;;;5.40;99.90;;;5.41;100.00;101304.66;4956407;28;20659;-78
2023/01/03 02:46:02;;;;;;;3.90;1.00;;;5.40;99.90;;;5.48;100.00;101319.84;4968481;28;20237;-79
2023/01/03 02:48:54;;;;;;;10.57;2.45;;;5.50;99.90;;;5.56;100.00;101320.16;4972397;28;20691;-77
2023/01/03 02:51:42;;;;;;;10.77;2.45;;;5.50;99.90;;;5.66;100.00;101332.84;4980101;28;20232;-77
2023/01/03 02:54:29;;;;;;;15.77;3.17;;;5.60;99.90;;;5.61;100.00;101329.13;4957916;28;20233;-77
2023/01/03 02:57:15;;;;;;;29.33;6.03;;;5.60;99.90;;;5.60;100.00;101329.97;4952037;28;20277;-80
2023/01/03 03:00:01;;;;;;;6.57;1.48;;;5.60;99.90;;;5.69;100.00;101330.38;4960213;28;20284;-81
2023/01/03 03:02:31;;;;;;;11.75;2.70;;;5.70;99.90;;;5.75;100.00;101335.88;4962581;28;20299;-78
2023/01/03 03:05:04;;;;;;;12.13;2.88;;;5.70;99.90;;;5.65;100.00;101334.59;4955862;28;20787;-78
2023/01/03 03:07:38;;;;;;;11.82;2.67;;;5.70;99.90;;;5.56;100.00;101331.56;4964746;28;20561;-78
2023/01/03 03:13:14;;;;;;;8.30;1.83;;;5.60;99.90;;;5.53;100.00;101334.06;4964537;28;20221;-78
2023/01/03 03:16:04;;;;;;;8.18;1.80;;;5.60;99.90;;;5.68;100.00;101355.72;4976871;28;20228;-77
2023/01/03 03:18:53;;;;;;;9.02;1.95;;;5.60;99.90;;;5.84;100.00;101359.88;4973887;28;20232;-77
2023/01/03 03:30:04;;;;;;;10.80;2.58;;;5.80;99.90;;;5.83;100.00;101365.06;4969597;28;20241;-77
2023/01/03 03:32:35;;;;;;;4.40;1.10;;;5.80;99.90;;;5.76;100.00;101362.19;4966663;28;20239;-77
2023/01/03 03:35:05;;;;;;;5.70;1.35;;;5.80;99.90;;;5.67;100.00;101356.53;4982681;28;20240;-77
2023/01/03 03:37:37;;;;;;;8.55;1.95;;;5.70;99.90;;;5.70;100.00;101366.28;4971787;28;20244;-78
2023/01/03 03:46:21;;;;;;;9.30;2.17;;;5.80;99.90;;;5.78;100.00;101378.00;4973518;28;20263;-77
2023/01/03 03:52:00;;;;;;;9.80;2.30;;;5.70;99.90;;;5.79;100.00;101375.44;4967859;28;20237;-78
2023/01/03 03:54:33;;;;;;;9.57;2.25;;;5.80;99.90;;;5.85;100.00;101380.06;4973142;28;20318;-78
2023/01/03 03:57:21;;;;;;;6.82;1.58;;;5.90;99.90;;;6.00;100.00;101387.72;4975359;28;20237;-77
2023/01/03 04:00:00;;;;;;;14.52;3.28;;;5.90;99.90;;;6.02;100.00;101397.47;4969288;28;20265;-77
2023/01/03 04:02:30;;;;;;;11.32;2.60;;;6.00;99.90;;;5.97;100.00;101379.72;4973999;28;20224;-78
2023/01/03 04:05:00;;;;;;;13.48;2.95;;;6.00;99.90;;;6.03;100.00;101375.63;4975805;28;20256;-77
2023/01/03 04:07:27;;;;;;;7.68;1.92;;;6.00;99.90;;;6.04;100.00;101379.16;4982187;28;20275;-78
2023/01/03 04:09:55;;;;;;;4.68;1.35;;;6.00;99.90;;;6.05;100.00;101379.22;4978142;28;20237;-77
2023/01/03 04:12:22;;;;;;;7.28;1.73;;;6.00;99.90;;;6.16;100.00;101395.41;4969743;28;20279;-77
2023/01/03 04:14:49;;;;;;;5.80;1.52;;;6.10;99.90;;;5.95;100.00;101390.16;4981270;28;20282;-78
2023/01/03 04:17:16;;;;;;;6.10;1.48;;;6.00;99.90;;;6.00;100.00;101387.72;4987689;28;20248;-78
2023/01/03 04:20:49;;;;;;;17.02;3.90;;;6.00;99.90;;;5.77;100.00;101381.47;4964422;28;20237;-77
2023/01/03 04:23:16;;;;;;;8.73;1.90;;;5.80;99.90;;;5.95;100.00;101399.75;4958325;28;20289;-78
2023/01/03 04:25:43;;;;;;;8.73;1.83;;;5.90;99.90;;;5.59;100.00;101383.28;4968851;28;20261;-77
2023/01/03 04:28:10;;;;;;;8.45;1.83;;;5.70;99.90;;;5.96;100.00;101418.22;4966258;28;20235;-79
2023/01/03 04:30:37;;;;;;;9.07;1.98;;;5.90;99.90;;;6.01;100.00;101426.28;4978267;28;20232;-77
2023/01/03 04:33:04;;;;;;;4.80;1.08;;;6.00;99.90;;;5.82;100.00;101426.28;4973965;28;20249;-77
2023/01/03 04:35:32;;;;;;;9.48;2.00;;;5.90;99.90;;;5.79;100.00;101421.78;4971028;28;20312;-77
2023/01/03 04:37:59;;;;;;;10.07;2.58;;;5.80;99.90;;;5.95;100.00;101437.41;4962752;28;20277;-77
2023/01/03 04:40:27;;;;;;;9.07;2.55;;;5.90;99.90;;;6.09;100.00;101457.28;4967164;28;20233;-77
2023/01/03 04:45:39;;;;;;;8.57;1.90;;;6.10;99.90;;;6.03;100.00;101478.03;4965417;28;20232;-78
2023/01/03 04:48:06;;;;;;;16.45;3.47;;;6.10;99.90;;;6.06;100.00;101469.38;4962386;28;20222;-77
2023/01/03 04:50:33;;;;;;;5.00;1.23;;;6.10;99.90;;;5.99;100.00;101478.72;4958436;28;20260;-78
2023/01/03 04:53:00;;;;;;;9.40;2.28;;;6.00;99.90;;;6.03;100.00;101478.03;4970488;28;20284;-77
2023/01/03 04:55:27;;;;;;;8.82;2.42;;;6.00;99.90;;;6.05;100.00;101483.34;4952982;28;20254;-77
2023/01/03 04:57:55;;;;;;;9.77;2.35;;;6.10;99.90;;;6.17;100.00;101501.38;4958644;28;20248;-77
2023/01/03 05:00:22;;;;;;;10.90;2.47;;;6.10;99.90;;;6.27;100.00;101500.94;4960603;28;20311;-78
2023/01/03 05:02:49;;;;;;;8.52;2.13;;;6.20;99.90;;;6.25;100.00;101499.97;4968983;28;20225;-77
2023/01/03 05:05:16;;;;;;;7.03;1.65;;;6.30;99.90;;;6.28;100.00;101505.38;4969550;28;20221;-77
2023/01/03 05:07:43;;;;;;;5.90;1.30;;;6.30;99.90;;;6.26;100.00;101501.78;4952249;28;20233;-78
2023/01/03 05:10:10;;;;;;;11.43;2.38;;;6.30;99.90;;;6.17;100.00;101502.28;4975205;28;20677;-78
2023/01/03 05:12:37;;;;;;;4.45;1.10;;;6.20;99.90;;;6.17;100.00;101502.28;4966846;28;20241;-78
2023/01/03 05:15:05;;;;;;;7.18;1.52;;;6.20;99.90;;;6.23;100.00;101501.66;4959049;28;20304;-77
2023/01/03 05:17:32;;;;;;;6.85;1.55;;;6.30;99.90;;;6.38;100.00;101512.81;4962058;28;20280;-77
2023/01/03 05:25:48;;;;;;;7.40;1.77;;;6.30;99.90;;;6.16;100.00;101508.34;4959905;28;20280;-77
2023/01/03 05:28:20;;;;;;;4.78;1.15;;;6.20;99.90;;;6.09;100.00;101506.28;4967807;28;20236;-78
2023/01/03 05:30:48;;;;;;;5.57;1.35;;;6.10;99.90;;;6.10;100.00;101513.34;4957123;28;20240;-77
2023/01/03 05:33:15;;;;;;;5.47;1.35;;;6.10;99.90;;;6.13;100.00;101509.94;4966635;28;20664;-77
2023/01/03 05:35:46;;;;;;;5.05;1.23;;;6.20;99.90;;;6.06;100.00;101520.19;4968008;28;20252;-82
2023/01/03 05:38:14;;;;;;;4.40;1.17;;;6.10;99.90;;;6.05;100.00;101525.38;4969118;28;20276;-81
2023/01/03 05:40:41;;;;;;;6.20;1.42;;;6.10;99.90;;;5.98;100.00;101520.69;4965241;28;20251;-78
2023/01/03 05:43:09;;;;;;;4.43;1.02;;;6.10;99.90;;;5.87;100.00;101520.16;4975745;28;20233;-77
2023/01/03 05:45:37;;;;;;;3.60;0.88;;;6.00;99.90;;;5.91;100.00;101532.63;4964373;28;20287;-81
2023/01/03 05:48:06;;;;;;;9.35;2.03;;;5.90;99.90;;;5.97;100.00;101534.63;4965416;28;20236;-77
2023/01/03 05:50:34;;;;;;;9.02;1.88;;;6.00;99.90;;;5.89;100.00;101526.41;4969016;28;20292;-78
2023/01/03 05:53:02;;;;;;;15.13;3.35;;;5.90;99.90;;;5.87;100.00;101525.41;4967951;28;20257;-77
2023/01/03 05:55:30;;;;;;;22.25;4.70;;;5.90;99.90;;;5.93;100.00;101541.47;4954605;28;20225;-77
2023/01/03 05:57:57;;;;;;;12.68;2.92;;;6.00;99.90;;;5.88;100.00;101536.81;4967368;28;20236;-77
2023/01/03 06:00:24;;;;;;;10.93;2.47;;;5.90;99.90;;;5.88;100.00;101539.44;4972481;28;20237;-77
2023/01/03 06:02:51;;;;;;;16.55;3.42;;;5.90;99.90;;;5.85;100.00;101528.78;4952018;28;20352;-77
2023/01/03 06:05:18;;;;;;;9.07;2.00;;;5.90;99.90;;;5.78;100.00;101536.38;4974645;28;20261;-78
2023/01/03 06:07:45;;;;;;;6.43;1.55;;;5.80;99.90;;;5.88;100.00;101547.31;4969430;28;20280;-77
2023/01/03 06:10:13;;;;;;;13.95;2.85;;;5.90;99.90;;;5.91;100.00;101545.75;4976026;28;20241;-83
2023/01/03 06:12:40;;;;;;;8.98;1.90;;;5.90;99.90;;;5.86;100.00;101551.59;4978179;28;20233;-76
2023/01/03 06:15:08;;;;;;;9.10;1.98;;;5.90;99.90;;;5.96;100.00;101553.84;4992416;28;20263;-76
2023/01/03 06:17:53;;;;;;;2.88;0.77;;;6.00;99.90;;;5.99;100.00;101565.38;4971718;28;20283;-76
2023/01/03 06:20:20;;;;;;;8.95;2.13;;;6.00;99.90;;;6.07;100.00;101577.13;4966230;28;20296;-77
2023/01/03 06:22:47;;;;;;;9.90;2.20;;;6.10;99.90;;;6.16;100.00;101581.91;4967354;28;20717;-82
2023/01/03 06:25:15;;;;;;;10.57;2.25;;;6.20;99.90;;;6.22;100.00;101581.28;4963041;28;20237;-77
2023/01/03 06:27:42;;;;;;;8.98;1.95;;;6.20;99.90;;;6.14;100.00;101580.03;4961386;28;20280;-78
2023/01/03 06:30:10;;;;;;;10.23;2.13;;;6.20;99.90;;;6.13;100.00;101587.00;4965152;28;20233;-78
2023/01/03 06:32:37;;;;;;;11.13;2.45;;;6.20;99.90;;;6.17;100.00;101588.94;4969798;28;20233;-79
2023/01/03 06:35:04;;;;;;;6.47;1.50;;;6.20;99.90;;;6.22;100.00;101595.31;4965978;28;20240;-78
2023/01/03 06:37:31;;;;;;;15.32;3.20;;;6.20;99.90;;;6.29;100.00;101591.22;4974178;28;20252;-78
2023/01/03 06:39:59;;;;;;;16.10;3.55;;;6.30;99.90;;;6.26;100.00;101593.72;4979231;28;20267;-81
2023/01/03 06:42:38;;;;;;;13.50;3.08;;;6.30;99.90;;;6.24;100.00;101600.63;4976963;28;20302;-78
2023/01/03 06:53:32;;;;;;;8.95;2.17;;;6.20;99.90;;;6.21;100.00;101604.03;4966510;28;20265;-79
2023/01/03 06:56:00;;;;;;;8.07;1.75;;;6.20;99.90;;;6.21;100.00;101605.75;4952919;28;20237;-78
2023/01/03 06:58:27;;;;;;;12.48;2.72;;;6.20;99.90;;;6.22;100.00;101607.53;4975698;28;20225;-78
2023/01/03 07:00:56;;;;;;;12.38;2.85;;;6.20;99.90;;;6.23;100.00;101606.72;4988709;28;20243;-78
2023/01/03 07:03:23;;;;;;;10.60;2.33;;;6.20;99.90;;;6.23;100.00;101606.72;4988090;28;20226;-79
2023/01/03 07:05:51;;;;;;;11.23;2.55;;;6.30;99.90;;;6.28;100.00;101618.31;4984802;28;20322;-78
2023/01/03 07:08:18;;;;;;;18.60;4.03;;;6.30;99.90;;;6.25;100.00;101616.47;4990415;28;20229;-78
2023/01/03 07:10:45;;;;;;;8.60;1.92;;;6.30;99.90;;;6.18;100.00;101609.13;4980664;28;20276;-78
2023/01/03 07:15:58;;;;;;;7.22;1.73;;;6.20;99.90;;;6.22;100.00;101620.69;4978665;28;20237;-78
2023/01/03 07:18:26;;;;;;;6.72;1.70;;;6.20;99.90;;;6.23;100.00;101623.38;4984416;28;20255;-78
2023/01/03 07:20:53;;;;;;;8.73;2.20;;;6.30;99.90;;;6.16;100.00;101623.03;4982185;28;20232;-78
2023/01/03 07:23:20;;;;;;;9.55;2.30;;;6.20;99.90;;;6.15;100.00;101622.13;4981137;28;20229;-78
2023/01/03 07:25:48;;;;;;;11.02;2.50;;;6.20;99.90;;;6.03;100.00;101622.47;4962640;28;20234;-81
2023/01/03 07:28:16;;;;;;;8.98;2.00;;;6.10;99.90;;;6.02;100.00;101628.53;4980054;28;20233;-78
2023/01/03 07:30:45;;;;;;;7.53;1.73;;;6.10;99.90;;;5.97;100.00;101632.69;4978123;28;20239;-78
2023/01/03 07:33:14;;;;;;;7.97;1.75;;;6.00;99.90;;;5.89;100.00;101630.50;4985106;28;20232;-78
2023/01/03 07:35:41;;;;;;;13.00;2.63;;;5.90;99.90;;;5.86;100.00;101631.25;4985380;28;20297;-78
2023/01/03 07:38:11;;;;;;;8.25;1.77;;;5.90;99.90;;;5.91;100.00;101644.63;4990552;28;20286;-79
2023/01/03 07:40:38;;;;;;;8.43;1.85;;;5.90;99.90;;;6.08;100.00;101651.56;4986087;28;20295;-78
2023/01/03 07:45:54;;;;;;;12.07;2.65;;;6.10;99.90;;;6.08;100.00;101662.06;4989057;28;20295;-78
2023/01/03 07:48:21;;;;;;;9.05;2.05;;;6.10;99.90;;;6.13;100.00;101670.16;4972425;28;20248;-78
2023/01/03 07:50:48;;;;;;;9.80;2.30;;;6.10;99.90;;;6.09;100.00;101671.75;4955943;28;20229;-78
2023/01/03 07:53:16;;;;;;;10.45;2.33;;;6.10;99.90;;;5.95;100.00;101676.34;4966814;28;20236;-79
2023/01/03 07:55:46;;;;;;;11.27;2.58;;;6.00;99.90;;;6.02;100.00;101685.41;4958037;28;20234;-79
2023/01/03 07:58:13;;;;;;;9.50;2.03;;;6.00;99.90;;;6.08;100.00;101686.59;4974284;28;20236;-78
2023/01/03 08:00:41;;;;;;;5.55;1.27;;;6.10;99.90;;;6.06;100.00;101676.84;4986467;28;20236;-78
2023/01/03 08:03:09;;;;;;;9.57;2.10;;;6.10;99.90;;;6.05;100.00;101682.94;4984272;28;20249;-79
2023/01/03 08:05:38;;;;;;;8.18;1.70;;;6.10;99.90;;;5.97;100.00;101690.44;4983391;28;20270;-79
2023/01/03 08:08:05;;;;;;;9.43;2.05;;;6.00;99.90;;;6.00;100.00;101695.84;4980682;28;20229;-79
2023/01/03 08:13:18;;;;;;;6.88;1.70;;;6.00;99.90;;;6.06;100.00;101701.38;4991465;28;20295;-78
2023/01/03 08:15:51;;;;;;;4.03;1.08;;;6.10;99.90;;;6.08;100.00;101711.97;4960252;28;20245;-78
2023/01/03 08:18:22;;;;;;;6.68;1.73;;;6.10;99.90;;;6.08;100.00;101710.25;4976084;28;20256;-78
2023/01/03 08:20:53;;;;;;;11.18;2.63;;;6.10;99.90;;;6.04;100.00;101710.03;4972231;28;20237;-79
2023/01/03 08:23:22;;;;;;;6.07;1.60;;;6.10;99.90;;;6.00;100.00;101708.97;4960556;28;20313;-79
2023/01/03 08:25:50;;;;;;;11.68;2.70;;;6.00;99.90;;;5.96;100.00;101714.91;4971031;28;20228;-80
2023/01/03 08:28:17;;;;;;;9.55;2.22;;;6.00;99.90;;;5.88;100.00;101718.88;4971791;28;20233;-78
2023/01/03 08:30:49;;;;;;;6.93;1.50;;;5.90;99.90;;;5.86;100.00;101717.00;4977847;28;20315;-79
2023/01/03 08:33:19;;;;;;;17.10;3.65;;;5.90;99.90;;;5.89;100.00;101719.75;4984992;28;20295;-78
2023/01/03 08:35:55;;;;;;;14.73;3.13;;;5.90;99.90;;;5.89;100.00;101725.94;4963890;28;20221;-78
2023/01/03 08:38:28;;;;;;;10.85;2.50;;;5.90;99.90;;;5.92;100.00;101726.09;4957267;28;20235;-78
2023/01/03 08:40:57;;;;;;;21.50;4.57;;;5.90;99.90;;;5.97;100.00;101737.72;4965116;28;20292;-78
2023/01/03 08:43:25;;;;;;;7.88;1.83;;;6.00;99.90;;;5.99;100.00;101745.66;4963594;28;20228;-78
2023/01/03 08:45:52;;;;;;;21.35;4.75;;;6.00;99.90;;;6.03;100.00;101745.91;4961891;28;20225;-78
2023/01/03 08:48:21;;;;;;;20.50;4.53;;;6.00;99.90;;;6.05;100.00;101748.59;4964014;28;20235;-79
2023/01/03 08:50:48;;;;;;;11.90;2.75;;;6.10;99.90;;;6.07;100.00;101749.56;4955762;28;20323;-78
2023/01/03 08:53:16;;;;;;;9.55;2.28;;;6.10;99.90;;;6.12;100.00;101758.56;4957448;28;20229;-80
2023/01/03 08:55:43;;;;;;;5.75;1.38;;;6.10;99.90;;;6.17;100.00;101757.06;4961154;28;20760;-79
2023/01/03 08:58:10;;;;;;;11.30;2.47;;;6.20;99.90;;;6.24;100.00;101768.75;4963060;28;20236;-78
2023/01/03 09:00:38;;;;;;;9.93;2.20;;;6.20;99.90;;;6.28;100.00;101779.47;4968922;28;20239;-78
2023/01/03 09:03:05;;;;;;;10.02;2.28;;;6.30;99.90;;;6.31;100.00;101769.13;4969464;28;20225;-78
2023/01/03 09:05:33;;;;;;;15.50;3.25;;;6.30;99.90;;;6.36;100.00;101777.22;4971825;28;20245;-78
2023/01/03 09:08:01;;;;;;;9.45;2.22;;;6.30;99.90;;;6.50;100.00;101793.63;4967846;28;20233;-79
2023/01/03 09:10:28;;;;;;;20.58;4.35;;;6.50;99.90;;;6.59;100.00;101800.25;4963994;28;20240;-78
2023/01/03 09:12:55;;;;;;;14.65;3.22;;;6.50;99.90;;;6.76;100.00;101806.31;4969345;28;20237;-78
2023/01/03 09:15:22;;;;;;;11.02;2.60;;;6.70;99.90;;;6.86;100.00;101810.25;4975779;28;20289;-78
2023/01/03 09:17:50;;;;;;;10.65;2.40;;;6.80;99.90;;;6.95;100.00;101808.94;4954811;28;20229;-78
2023/01/03 09:20:17;;;;;;;9.40;2.22;;;6.90;99.90;;;7.07;100.00;101809.50;4970371;28;20229;-78
2023/01/03 09:22:46;;;;;;;7.85;1.75;;;7.00;99.90;;;7.23;100.00;101811.06;4965869;28;20251;-78
2023/01/03 09:25:14;;;;;;;10.60;2.22;;;7.20;99.90;;;7.38;100.00;101814.38;4968518;28;20232;-79
2023/01/03 09:27:46;;;;;;;11.13;2.30;;;7.30;99.90;;;7.43;100.00;101809.31;4964438;28;20240;-79
2023/01/03 09:30:15;;;;;;;9.80;2.08;;;7.40;99.90;;;7.51;100.00;101815.81;4961584;28;20233;-79
2023/01/03 09:32:43;;;;;;;12.65;2.75;;;7.50;99.90;;;7.55;100.00;101806.31;4976411;28;20229;-78
2023/01/03 09:35:10;;;;;;;10.75;2.45;;;7.50;99.90;;;7.58;100.00;101801.19;4967345;28;20229;-78
2023/01/03 09:37:37;;;;;;;5.43;1.33;;;7.50;99.90;;;7.59;100.00;101798.63;4968976;28;20225;-78
2023/01/03 09:40:10;;;;;;;14.13;3.17;;;7.50;99.90;;;7.69;100.00;101803.44;4968133;28;20244;-78
2023/01/03 09:45:33;;;;;;;7.47;2.03;;;7.70;99.90;;;7.89;100.00;101796.41;4970115;28;20225;-79
2023/01/03 09:48:02;;;;;;;12.38;2.80;;;7.90;99.90;;;7.90;100.00;101797.31;4968481;28;20236;-78
2023/01/03 09:50:35;;;;;;;11.02;2.50;;;7.90;99.90;;;8.03;100.00;101803.13;4959056;28;20233;-78
2023/01/03 10:05:30;;;;;;;10.02;1.95;;;8.30;99.90;;;8.46;100.00;101798.72;4958753;28;20229;-79
2023/01/03 10:08:12;;;;;;;13.35;3.00;;;8.40;99.90;;;8.54;100.00;101792.91;4960405;28;20228;-78
2023/01/03 10:10:58;;;;;;;14.30;3.03;;;8.50;99.90;;;8.63;100.00;101777.44;4963328;28;20245;-78
2023/01/03 10:13:40;;;;;;;12.55;2.88;;;8.60;99.90;;;8.73;100.00;101780.44;4963476;28;20637;-78
2023/01/03 10:16:23;;;;;;;8.23;1.77;;;8.60;99.90;;;8.82;100.00;101786.94;4969424;28;20235;-78
2023/01/03 10:19:23;;;;;;;10.35;2.40;;;8.70;99.90;;;8.84;100.00;101781.72;4967468;28;20225;-78
2023/01/03 10:22:13;;;;;;;9.02;2.10;;;8.70;99.90;;;8.96;100.00;101783.09;4963262;28;20229;-78
2023/01/03 10:25:06;;;;;;;5.85;1.27;;;8.90;99.90;;;9.26;100.00;101787.72;4965044;28;20659;-78
2023/01/03 10:27:58;;;;;;;7.15;1.60;;;9.10;99.90;;;9.18;100.00;101758.41;4964675;28;20439;-78
2023/01/03 10:30:47;;;;;;;12.57;2.83;;;9.20;99.90;;;9.04;100.00;101745.53;4965611;28;20232;-79
2023/01/03 10:33:48;;;;;;;11.02;2.40;;;9.00;99.90;;;9.03;100.00;101726.16;4966485;28;20238;-78
2023/01/03 10:36:19;;;;;;;8.52;1.85;;;9.00;99.90;;;9.05;100.00;101710.38;4969740;28;20601;-78
2023/01/03 10:38:46;;;;;;;2.30;0.60;;;9.00;99.90;;;9.07;100.00;101713.97;4964275;28;20296;-78
2023/01/03 10:41:42;;;;;;;7.88;1.70;;;9.00;99.90;;;9.07;100.00;101695.50;4964919;28;20305;-78
2023/01/03 10:44:29;;;;;;;13.40;2.97;;;9.00;99.90;;;9.05;98.44;101670.78;4968654;28;20312;-78
2023/01/03 10:47:08;;;;;;;10.23;2.40;;;9.00;99.90;;;9.05;98.33;101661.13;4968054;28;20244;-78
2023/01/03 10:49:35;;;;;;;19.20;3.83;;;9.00;99.90;;;9.05;97.75;101652.31;4968141;28;20235;-79
2023/01/03 10:52:23;;;;;;;14.30;2.92;;;9.00;99.90;;;9.09;97.57;101654.22;4962705;28;20848;-81
2023/01/03 10:54:57;;;;;;;7.18;1.77;;;9.00;99.90;;;9.13;96.42;101642.97;4946228;28;20230;-80
2023/01/03 10:57:41;;;;;;;8.32;1.77;;;9.10;99.90;;;9.28;96.05;101644.38;4967776;28;20291;-81
2023/01/03 11:00:28;;;;;;;3.22;0.80;;;9.20;99.90;;;9.32;95.08;101636.56;4969119;28;20266;-80
2023/01/03 11:03:20;;;;;;;19.50;4.05;;;9.20;99.90;;;9.35;94.07;101621.72;4966579;28;20230;-78
2023/01/03 11:05:56;;;;;;;9.20;1.95;;;9.30;99.90;;;9.47;94.94;101637.94;4968126;28;20271;-76
2023/01/03 11:08:47;;;;;;;11.50;2.65;;;9.40;99.90;;;9.48;93.50;101618.63;4967370;28;20225;-79
2023/01/03 11:11:40;;;;;;;5.45;1.27;;;9.40;99.90;;;9.49;92.49;101601.94;4961075;28;20249;-78
2023/01/03 11:14:23;;;;;;;7.93;1.63;;;9.40;99.90;;;9.73;92.58;101622.94;4966525;28;20221;-79
2023/01/03 11:17:04;;;;;;;5.45;1.50;;;9.60;99.90;;;9.72;91.67;101599.09;4971108;28;20228;-78
2023/01/03 11:19:33;;;;;;;30.58;6.13;;;9.60;99.90;;;9.77;91.33;101590.47;4962787;28;20225;-80
2023/01/03 11:22:06;;;;;;;10.02;2.20;;;9.70;99.90;;;9.91;91.35;101606.75;4969539;28;20248;-78
2023/01/03 11:24:52;;;;;;;7.10;1.55;;;9.80;99.90;;;9.99;91.05;101592.03;4963370;28;20257;-79
2023/01/03 11:27:46;;;;;;;9.15;2.15;;;9.90;99.90;;;9.95;90.92;101579.56;4963037;28;20299;-78
2023/01/03 11:30:56;;;;;;;7.70;1.70;;;9.90;99.90;;;9.94;90.97;101591.88;4970513;28;20269;-87
2023/01/03 11:34:02;;;;;;;11.68;2.60;;;9.90;99.90;;;9.81;90.11;101563.31;4980974;28;20285;-82
2023/01/03 11:36:44;;;;;;;10.90;2.63;;;9.80;99.90;;;9.88;90.55;101570.56;4959477;28;20240;-81
2023/01/03 11:39:23;;;;;;;9.35;2.08;;;9.80;99.90;;;9.87;89.12;101533.53;4950840;28;20226;-79
2023/01/03 11:42:43;;;;;;;14.95;3.13;;;9.80;99.90;;;9.86;88.65;101521.16;4965530;28;20279;-79
2023/01/03 11:45:42;;;;;;;3.92;1.00;;;9.80;99.90;;;9.87;88.62;101517.66;4979688;28;20299;-78
2023/01/03 11:49:09;;;;;;;16.33;3.53;;;9.80;99.90;;;9.94;88.00;101517.00;4963555;28;20228;-78
2023/01/03 11:52:14;;;;;;;8.48;2.03;;;9.90;99.90;;;10.01;88.18;101504.84;4958656;28;20253;-77
2023/01/03 11:54:53;;;;;;;6.03;1.40;;;9.90;99.90;;;10.18;88.09;101511.50;4967006;28;20595;-79